Time;durP1;ratioP1;P1;durP2;ratioP2;P2;SDS_P1;SDS_P2;PMS_P1;PMS_P2;Temp;Humidity;BMP_temperature;BMP_pressure;BME280_temperature;BME280_humidity;BME280_pressure;Samples;Min_cycle;Max_cycle;Signal;HPM_P1;HPM_P2
2022/05/23 00:03:04;;;;;;;10.25;4.88;;;;;;;;;;10485516;28;20247;-66
2022/05/23 00:08:07;;;;;;;6.38;4.68;;;;;;;;;;10473139;28;20340;-66
2022/05/23 00:13:09;;;;;;;11.18;5.53;;;;;;;;;;10474567;28;20068;-66
2022/05/23 00:18:14;;;;;;;10.05;5.68;;;;;;;;;;10474582;28;20048;-66
2022/05/23 00:23:16;;;;;;;9.80;5.60;;;;;;;;;;10485236;28;20053;-66
2022/05/23 00:28:18;;;;;;;9.93;5.20;;;;;;;;;;10482395;28;20239;-66
2022/05/23 00:38:42;;;;;;;8.20;5.10;;;;;;;;;;10498758;28;20088;-66
2022/05/23 00:43:51;;;;;;;9.27;5.78;;;;;;;;;;10471779;28;20116;-66
2022/05/23 00:48:55;;;;;;;10.52;6.47;;;;;;;;;;10472225;28;20336;-67
2022/05/23 00:54:01;;;;;;;11.95;7.10;;;;;;;;;;10471798;28;20065;-66
2022/05/23 00:59:04;;;;;;;14.13;7.70;;;;;;;;;;10468879;28;20053;-66
2022/05/23 01:04:08;;;;;;;11.55;7.25;;;;;;;;;;10472550;28;20247;-66
2022/05/23 01:09:10;;;;;;;11.88;7.55;;;;;;;;;;10436082;28;20049;-66
2022/05/23 01:14:12;;;;;;;16.77;8.23;;;;;;;;;;10472531;28;20045;-66
2022/05/23 01:19:16;;;;;;;17.13;8.85;;;;;;;;;;10508688;28;20065;-66
2022/05/23 01:24:26;;;;;;;16.80;10.13;;;;;;;;;;10514861;28;20278;-66
2022/05/23 01:29:30;;;;;;;18.08;10.10;;;;;;;;;;10518330;28;20097;-66
2022/05/23 01:34:33;;;;;;;16.17;9.55;;;;;;;;;;10514419;28;20294;-66
2022/05/23 01:39:35;;;;;;;18.58;9.30;;;;;;;;;;10497750;28;20061;-66
2022/05/23 01:44:39;;;;;;;12.18;8.23;;;;;;;;;;10434549;28;20131;-66
2022/05/23 01:49:41;;;;;;;10.35;6.78;;;;;;;;;;10447895;28;20080;-66
2022/05/23 01:54:43;;;;;;;11.82;7.32;;;;;;;;;;10477178;28;20037;-67
2022/05/23 02:05:07;;;;;;;18.92;12.40;;;;;;;;;;10483739;28;20117;-66
2022/05/23 02:10:10;;;;;;;20.63;12.57;;;;;;;;;;10486675;28;20110;-66
2022/05/23 02:15:14;;;;;;;21.98;13.45;;;;;;;;;;10478137;28;20048;-66
2022/05/23 02:20:16;;;;;;;26.02;15.43;;;;;;;;;;10471168;28;20071;-66
2022/05/23 02:25:19;;;;;;;23.15;12.38;;;;;;;;;;10480036;28;20048;-66
2022/05/23 02:30:23;;;;;;;23.73;12.52;;;;;;;;;;10474871;28;20056;-66
2022/05/23 02:35:26;;;;;;;23.48;11.63;;;;;;;;;;10479104;28;20355;-65
2022/05/23 02:40:28;;;;;;;20.10;11.07;;;;;;;;;;10479070;28;20283;-67
2022/05/23 02:45:33;;;;;;;22.60;10.73;;;;;;;;;;10475957;28;20084;-67
2022/05/23 02:50:35;;;;;;;26.17;12.23;;;;;;;;;;10480120;28;20047;-67
2022/05/23 02:55:37;;;;;;;26.15;12.90;;;;;;;;;;10486054;28;20076;-66
2022/05/23 03:00:41;;;;;;;19.48;10.25;;;;;;;;;;10479491;28;20295;-65
2022/05/23 03:05:45;;;;;;;25.02;9.43;;;;;;;;;;10474570;28;20332;-66
2022/05/23 03:10:49;;;;;;;15.35;7.72;;;;;;;;;;10448614;28;20283;-67
2022/05/23 03:15:53;;;;;;;11.43;7.70;;;;;;;;;;10461422;28;20386;-67
2022/05/23 03:20:57;;;;;;;11.70;8.20;;;;;;;;;;10473038;28;20053;-66
2022/05/23 03:31:20;;;;;;;14.15;6.85;;;;;;;;;;10505729;28;20067;-66
2022/05/23 03:36:23;;;;;;;12.60;7.05;;;;;;;;;;10461419;28;20064;-66
2022/05/23 03:41:26;;;;;;;10.07;6.73;;;;;;;;;;10478875;28;20063;-67
2022/05/23 03:46:30;;;;;;;7.82;5.72;;;;;;;;;;10467762;28;20065;-67
2022/05/23 03:51:33;;;;;;;7.45;5.15;;;;;;;;;;10473009;28;20064;-66
2022/05/23 03:56:35;;;;;;;9.32;5.38;;;;;;;;;;10473463;28;20348;-66
2022/05/23 04:01:39;;;;;;;12.70;5.38;;;;;;;;;;10468275;28;20067;-67
2022/05/23 04:06:41;;;;;;;15.75;6.30;;;;;;;;;;10473759;28;20397;-66
2022/05/23 04:11:44;;;;;;;9.80;5.18;;;;;;;;;;10474072;28;20099;-66
2022/05/23 04:16:49;;;;;;;8.18;4.40;;;;;;;;;;10473415;28;20091;-66
2022/05/23 04:21:51;;;;;;;9.55;4.82;;;;;;;;;;10472988;28;20064;-66
2022/05/23 04:26:55;;;;;;;10.27;4.25;;;;;;;;;;10474122;28;20072;-66
2022/05/23 04:31:59;;;;;;;11.18;4.70;;;;;;;;;;10503688;28;20255;-66
2022/05/23 04:37:01;;;;;;;10.25;5.50;;;;;;;;;;10473447;28;20217;-67
2022/05/23 04:42:04;;;;;;;12.10;4.88;;;;;;;;;;10471904;28;20045;-67
2022/05/23 04:52:28;;;;;;;6.50;3.90;;;;;;;;;;10485156;28;20340;-67
2022/05/23 04:57:31;;;;;;;5.30;3.75;;;;;;;;;;10471122;28;20329;-68
2022/05/23 05:02:35;;;;;;;4.35;3.50;;;;;;;;;;10469086;28;20045;-68
2022/05/23 05:07:37;;;;;;;5.45;3.28;;;;;;;;;;10440546;28;20057;-68
2022/05/23 05:12:39;;;;;;;4.18;3.03;;;;;;;;;;10454330;28;20081;-68
2022/05/23 05:17:43;;;;;;;5.90;3.13;;;;;;;;;;10506798;28;20087;-67
2022/05/23 05:22:45;;;;;;;4.00;2.67;;;;;;;;;;10488669;28;20072;-67
2022/05/23 05:27:48;;;;;;;11.10;2.30;;;;;;;;;;10473867;28;20094;-68
2022/05/23 05:32:59;;;;;;;12.95;7.07;;;;;;;;;;10505082;28;20049;-68
2022/05/23 05:38:05;;;;;;;2.72;2.20;;;;;;;;;;10512061;28;20053;-68
2022/05/23 05:43:11;;;;;;;4.60;2.30;;;;;;;;;;10495853;28;20056;-68
2022/05/23 05:48:16;;;;;;;4.30;2.30;;;;;;;;;;10521215;28;20065;-68
2022/05/23 05:53:22;;;;;;;4.13;2.43;;;;;;;;;;10507301;28;20048;-68
2022/05/23 05:58:25;;;;;;;7.05;2.55;;;;;;;;;;10523092;28;20045;-68
2022/05/23 06:03:28;;;;;;;5.53;2.50;;;;;;;;;;10507859;28;20235;-67
2022/05/23 06:13:50;;;;;;;3.00;2.40;;;;;;;;;;10521226;28;20283;-67
2022/05/23 06:18:54;;;;;;;2.33;2.13;;;;;;;;;;10496743;28;20087;-67
2022/05/23 06:23:57;;;;;;;2.45;2.25;;;;;;;;;;10483260;28;20040;-68
2022/05/23 06:28:59;;;;;;;2.80;2.60;;;;;;;;;;10477019;28;20076;-67
2022/05/23 06:34:03;;;;;;;3.72;2.80;;;;;;;;;;10493160;28;20157;-67
2022/05/23 06:39:06;;;;;;;3.53;3.17;;;;;;;;;;10484579;28;20044;-67
2022/05/23 06:44:08;;;;;;;3.58;3.22;;;;;;;;;;10501633;28;20106;-66
2022/05/23 06:49:15;;;;;;;3.90;3.53;;;;;;;;;;10484967;28;20083;-67
2022/05/23 06:54:18;;;;;;;4.15;3.85;;;;;;;;;;10500888;28;20040;-66
2022/05/23 06:59:20;;;;;;;2.55;2.55;;;;;;;;;;10518411;28;20323;-66
2022/05/23 07:04:24;;;;;;;3.10;3.00;;;;;;;;;;10500928;28;20053;-67
2022/05/23 07:14:46;;;;;;;3.47;3.37;;;;;;;;;;10518282;28;20082;-67
2022/05/23 07:19:50;;;;;;;4.40;4.30;;;;;;;;;;10488765;28;20347;-67
2022/05/23 07:24:52;;;;;;;6.00;5.80;;;;;;;;;;10488362;28;20185;-67
2022/05/23 07:29:55;;;;;;;8.82;8.52;;;;;;;;;;10474395;28;20056;-68
2022/05/23 07:35:00;;;;;;;12.38;11.88;;;;;;;;;;10489100;28;20270;-67
2022/05/23 07:40:02;;;;;;;15.20;14.50;;;;;;;;;;10474647;28;20040;-68
2022/05/23 07:45:06;;;;;;;18.98;18.08;;;;;;;;;;10482118;28;20114;-67
2022/05/23 07:50:12;;;;;;;21.92;20.83;;;;;;;;;;10473532;28;20072;-68
2022/05/23 08:00:37;;;;;;;25.25;23.95;;;;;;;;;;10507555;28;20324;-67
2022/05/23 08:05:40;;;;;;;29.70;28.10;;;;;;;;;;10476833;28;20248;-67
2022/05/23 08:10:43;;;;;;;38.00;35.90;;;;;;;;;;10440914;28;20052;-68
2022/05/23 08:15:45;;;;;;;43.85;41.35;;;;;;;;;;10487999;28;20378;-68
2022/05/23 08:20:48;;;;;;;47.15;44.38;;;;;;;;;;10472905;28;20068;-68
2022/05/23 08:25:51;;;;;;;50.88;47.88;;;;;;;;;;10496545;28;20052;-68
2022/05/23 08:30:53;;;;;;;54.30;51.00;;;;;;;;;;10507755;28;20044;-68
2022/05/23 08:35:58;;;;;;;50.42;47.42;;;;;;;;;;10490800;28;20059;-67
2022/05/23 08:41:12;;;;;;;45.42;42.78;;;;;;;;;;10472574;28;20045;-68
2022/05/23 08:46:23;;;;;;;47.00;44.25;;;;;;;;;;10498376;28;20075;-67
2022/05/23 08:51:36;;;;;;;54.92;51.63;;;;;;;;;;10490647;28;20056;-68
2022/05/23 08:56:44;;;;;;;59.85;56.15;;;;;;;;;;10515866;28;20041;-67
2022/05/23 09:01:49;;;;;;;61.63;57.80;;;;;;;;;;10492397;28;20072;-68
2022/05/23 09:06:53;;;;;;;49.47;46.58;;;;;;;;;;10472022;28;20339;-68
2022/05/23 09:12:07;;;;;;;34.67;32.78;;;;;;;;;;10481151;28;20048;-67
2022/05/23 09:17:20;;;;;;;22.52;21.40;;;;;;;;;;10500231;28;20377;-69
2022/05/23 09:22:31;;;;;;;13.30;12.70;;;;;;;;;;10494244;28;20151;-69
2022/05/23 09:27:38;;;;;;;9.00;8.65;;;;;;;;;;10506415;28;20086;-67
2022/05/23 09:32:46;;;;;;;4.95;4.85;;;;;;;;;;10494078;28;20060;-67
2022/05/23 09:38:12;;;;;;;2.55;2.55;;;;;;;;;;10497172;28;20044;-68
2022/05/23 09:48:38;;;;;;;0.00;0.00;;;;;;;;;;10494072;28;20037;-68
2022/05/23 09:53:48;;;;;;;2.50;2.03;;;;;;;;;;10487777;28;20114;-67
2022/05/23 09:58:51;;;;;;;3.67;1.92;;;;;;;;;;10506415;28;20052;-68
2022/05/23 10:03:53;;;;;;;4.28;2.55;;;;;;;;;;10489105;28;20220;-67
2022/05/23 10:08:57;;;;;;;5.00;2.72;;;;;;;;;;10493071;28;20068;-68
2022/05/23 10:14:01;;;;;;;3.67;2.50;;;;;;;;;;10486606;28;20040;-67
2022/05/23 10:19:05;;;;;;;9.45;3.63;;;;;;;;;;10489118;28;20095;-67
2022/05/23 10:24:12;;;;;;;4.95;2.90;;;;;;;;;;10478196;28;20225;-67
2022/05/23 10:29:20;;;;;;;5.20;3.20;;;;;;;;;;10502081;28;20045;-68
2022/05/23 10:34:33;;;;;;;7.30;3.40;;;;;;;;;;10491938;28;20249;-67
2022/05/23 10:45:18;;;;;;;9.23;4.10;;;;;;;;;;10485615;28;20080;-67
2022/05/23 10:50:25;;;;;;;11.27;4.10;;;;;;;;;;10518430;28;20048;-67
2022/05/23 10:55:33;;;;;;;7.32;3.80;;;;;;;;;;10503318;28;20036;-67
2022/05/23 11:00:45;;;;;;;7.25;3.85;;;;;;;;;;10499829;28;20041;-66
2022/05/23 11:05:53;;;;;;;7.70;3.47;;;;;;;;;;10496314;28;20068;-67
2022/05/23 11:11:01;;;;;;;4.18;3.45;;;;;;;;;;10483037;28;20052;-67
2022/05/23 11:16:15;;;;;;;10.50;3.88;;;;;;;;;;10479473;28;20289;-67
2022/05/23 11:21:23;;;;;;;9.82;3.95;;;;;;;;;;10499142;28;20076;-67
2022/05/23 11:26:31;;;;;;;8.07;4.35;;;;;;;;;;10482107;28;20102;-67
2022/05/23 11:37:42;;;;;;;5.53;3.35;;;;;;;;;;10341285;28;20245;-66
2022/05/23 11:42:42;;;;;;;15.27;5.22;;;;;;;;;;10345740;28;20053;-67
2022/05/23 11:47:50;;;;;;;6.07;3.95;;;;;;;;;;10316330;28;20071;-67
2022/05/23 11:53:08;;;;;;;8.65;4.22;;;;;;;;;;10317284;28;20058;-66
2022/05/23 11:58:22;;;;;;;4.70;3.28;;;;;;;;;;10310165;28;20050;-67
2022/05/23 12:03:25;;;;;;;8.98;3.92;;;;;;;;;;10315560;28;20088;-67
2022/05/23 12:08:32;;;;;;;7.57;3.42;;;;;;;;;;10340577;28;20049;-67
2022/05/23 12:13:48;;;;;;;9.00;3.65;;;;;;;;;;10500613;28;20056;-67
2022/05/23 12:18:50;;;;;;;7.65;4.00;;;;;;;;;;10447075;28;20080;-66
2022/05/23 12:24:12;;;;;;;8.02;3.78;;;;;;;;;;10494958;28;20105;-68
2022/05/23 12:29:29;;;;;;;6.97;4.10;;;;;;;;;;10432936;28;20057;-68
2022/05/23 12:34:32;;;;;;;5.90;3.88;;;;;;;;;;10517013;28;20086;-67
2022/05/23 12:39:50;;;;;;;8.07;4.53;;;;;;;;;;10473344;28;20045;-66
2022/05/23 12:45:28;;;;;;;6.32;4.00;;;;;;;;;;10513615;28;20057;-67
2022/05/23 12:50:45;;;;;;;8.23;4.75;;;;;;;;;;10472395;28;20040;-68
2022/05/23 12:56:02;;;;;;;8.63;5.25;;;;;;;;;;10483474;28;20055;-67
2022/05/23 13:01:08;;;;;;;11.13;6.20;;;;;;;;;;10500483;28;20336;-67
2022/05/23 13:06:16;;;;;;;10.98;5.95;;;;;;;;;;10479579;28;20041;-67
2022/05/23 13:11:25;;;;;;;8.65;5.45;;;;;;;;;;10471978;28;20068;-70
2022/05/23 13:16:31;;;;;;;8.43;4.55;;;;;;;;;;10494263;28;20377;-69
2022/05/23 13:26:57;;;;;;;7.55;4.88;;;;;;;;;;10476830;28;20287;-71
2022/05/23 13:32:05;;;;;;;10.45;5.43;;;;;;;;;;10492387;28;20075;-75
2022/05/23 13:37:08;;;;;;;6.97;4.40;;;;;;;;;;10485876;28;20336;-74
2022/05/23 13:42:19;;;;;;;8.88;5.55;;;;;;;;;;10496957;28;20362;-69
2022/05/23 13:47:29;;;;;;;10.23;5.53;;;;;;;;;;10472857;28;20091;-69
2022/05/23 13:52:39;;;;;;;9.55;5.00;;;;;;;;;;10492543;28;20079;-69
2022/05/23 13:57:47;;;;;;;10.30;5.07;;;;;;;;;;10461570;28;20099;-69
2022/05/23 14:02:56;;;;;;;16.27;6.15;;;;;;;;;;10483292;28;20434;-71
2022/05/23 14:07:59;;;;;;;8.70;5.05;;;;;;;;;;10504570;28;20367;-69
2022/05/23 14:13:02;;;;;;;8.70;4.82;;;;;;;;;;10478407;28;20049;-69
2022/05/23 14:18:16;;;;;;;11.17;5.60;;;;;;;;;;10501495;28;20068;-70
2022/05/23 14:23:24;;;;;;;9.43;5.03;;;;;;;;;;10489756;28;20068;-71
2022/05/23 14:28:29;;;;;;;9.07;5.30;;;;;;;;;;10477282;28;20048;-70
2022/05/23 14:33:38;;;;;;;6.03;3.72;;;;;;;;;;10492648;28;20220;-71
2022/05/23 14:38:43;;;;;;;10.32;4.95;;;;;;;;;;10500841;28;20242;-70
2022/05/23 14:43:46;;;;;;;7.22;3.08;;;;;;;;;;10495462;28;20060;-70
2022/05/23 14:48:59;;;;;;;10.60;4.45;;;;;;;;;;10440936;28;20049;-68
2022/05/23 15:05:07;;;;;;;5.55;3.42;;;;;;;;;;10473608;28;20041;-68
2022/05/23 15:10:10;;;;;;;8.25;3.28;;;;;;;;;;10478612;28;20033;-69
2022/05/23 15:15:12;;;;;;;5.18;2.67;;;;;;;;;;10421499;28;20226;-67
2022/05/23 15:20:16;;;;;;;6.97;3.35;;;;;;;;;;10441317;28;20090;-70
2022/05/23 15:25:19;;;;;;;4.00;2.83;;;;;;;;;;10460399;28;20068;-68
2022/05/23 15:30:25;;;;;;;3.73;2.40;;;;;;;;;;10484910;28;20045;-70
2022/05/23 15:35:29;;;;;;;6.18;3.47;;;;;;;;;;10504890;28;20158;-69
2022/05/23 15:40:31;;;;;;;2.63;1.85;;;;;;;;;;10475614;28;20120;-67
2022/05/23 15:45:35;;;;;;;7.00;3.00;;;;;;;;;;10469313;28;20065;-71
2022/05/23 15:50:42;;;;;;;3.80;2.30;;;;;;;;;;10470945;28;20071;-68
2022/05/23 15:55:48;;;;;;;4.20;2.45;;;;;;;;;;10498600;28;20044;-70
2022/05/23 16:00:50;;;;;;;3.88;2.30;;;;;;;;;;10445141;28;20045;-70
2022/05/23 16:05:54;;;;;;;7.32;2.70;;;;;;;;;;10451008;28;20095;-68
2022/05/23 16:11:03;;;;;;;5.57;2.70;;;;;;;;;;10465838;28;20386;-67
2022/05/23 16:16:06;;;;;;;4.40;2.95;;;;;;;;;;10509172;28;20216;-67
2022/05/23 16:21:10;;;;;;;4.67;2.97;;;;;;;;;;10516494;28;20044;-66
2022/05/23 16:26:12;;;;;;;3.33;2.30;;;;;;;;;;10486504;28;20043;-66
2022/05/23 16:31:16;;;;;;;4.15;2.35;;;;;;;;;;10435170;28;20072;-69
2022/05/23 16:41:37;;;;;;;3.53;1.85;;;;;;;;;;10512292;28;20064;-67
2022/05/23 16:46:41;;;;;;;2.42;1.38;;;;;;;;;;10494484;28;20257;-66
2022/05/23 16:51:45;;;;;;;3.57;2.63;;;;;;;;;;10460459;28;20328;-69
2022/05/23 16:56:47;;;;;;;36.47;16.15;;;;;;;;;;10444874;28;20053;-68
2022/05/23 17:01:49;;;;;;;7.05;3.20;;;;;;;;;;10465136;28;20045;-68
2022/05/23 17:06:53;;;;;;;8.52;4.38;;;;;;;;;;10441836;28;20041;-67
2022/05/23 17:11:56;;;;;;;7.03;4.07;;;;;;;;;;10460954;28;20046;-68
2022/05/23 17:16:58;;;;;;;10.48;5.07;;;;;;;;;;10463875;28;20160;-67
2022/05/23 17:22:04;;;;;;;25.45;10.43;;;;;;;;;;10444550;28;20041;-68
2022/05/23 17:27:06;;;;;;;13.55;6.57;;;;;;;;;;10504322;28;20049;-66
2022/05/23 17:32:09;;;;;;;13.77;3.53;;;;;;;;;;10498894;28;20052;-67
2022/05/23 17:37:13;;;;;;;7.28;3.42;;;;;;;;;;10480900;28;20272;-66
2022/05/23 17:42:15;;;;;;;19.67;4.97;;;;;;;;;;10504241;28;20088;-67
2022/05/23 17:47:18;;;;;;;8.88;5.07;;;;;;;;;;10521611;28;20370;-69
2022/05/23 17:52:22;;;;;;;6.22;3.38;;;;;;;;;;10410539;28;20058;-69
2022/05/23 17:57:25;;;;;;;3.63;2.42;;;;;;;;;;10473281;28;20072;-68
2022/05/23 18:02:28;;;;;;;8.50;3.73;;;;;;;;;;10488852;28;20081;-67
2022/05/23 18:07:32;;;;;;;6.38;4.03;;;;;;;;;;10450367;28;20037;-68
2022/05/23 18:12:34;;;;;;;8.10;2.40;;;;;;;;;;10458746;28;20049;-68
2022/05/23 18:22:57;;;;;;;5.70;3.22;;;;;;;;;;10469886;28;20084;-68
2022/05/23 18:28:01;;;;;;;3.85;2.72;;;;;;;;;;10479182;28;20362;-67
2022/05/23 18:33:04;;;;;;;9.15;3.70;;;;;;;;;;10493974;28;20269;-68
2022/05/23 18:38:07;;;;;;;9.27;4.00;;;;;;;;;;10451611;28;20279;-68
2022/05/23 18:43:10;;;;;;;7.00;4.30;;;;;;;;;;10489878;28;20369;-67
2022/05/23 18:53:42;;;;;;;9.75;4.57;;;;;;;;;;10321021;28;20059;-68
2022/05/23 18:58:45;;;;;;;7.85;4.53;;;;;;;;;;10307359;28;20484;-68
2022/05/23 19:03:47;;;;;;;11.90;5.95;;;;;;;;;;10292659;28;20145;-69
2022/05/23 19:08:52;;;;;;;16.88;8.82;;;;;;;;;;10309513;28;20062;-68
2022/05/23 19:13:54;;;;;;;;;;;;;;;;;;10310497;28;20046;-67
2022/05/23 19:18:57;;;;;;;35.10;12.75;;;;;;;;;;10311913;28;19926;-67
2022/05/23 19:24:00;;;;;;;23.48;10.95;;;;;;;;;;10319553;28;20058;-68
2022/05/23 19:29:05;;;;;;;32.50;15.32;;;;;;;;;;10449422;28;20075;-68
2022/05/23 19:34:07;;;;;;;25.75;12.43;;;;;;;;;;10500847;28;20151;-65
2022/05/23 19:39:12;;;;;;;21.17;10.38;;;;;;;;;;10463575;28;20044;-67
2022/05/23 19:44:16;;;;;;;15.50;8.70;;;;;;;;;;10472954;28;20287;-67
2022/05/23 19:49:19;;;;;;;18.02;9.35;;;;;;;;;;10484071;28;20075;-68
2022/05/23 19:54:23;;;;;;;17.50;8.88;;;;;;;;;;10486326;28;20049;-68
2022/05/23 19:59:25;;;;;;;10.13;6.55;;;;;;;;;;10482405;28;20084;-67
2022/05/23 20:09:49;;;;;;;16.60;7.68;;;;;;;;;;10505223;28;21376;-67
2022/05/23 20:20:13;;;;;;;16.05;7.70;;;;;;;;;;10435669;28;20119;-67
2022/05/23 20:25:18;;;;;;;12.38;6.30;;;;;;;;;;10471609;28;20094;-66
2022/05/23 20:30:26;;;;;;;11.65;6.60;;;;;;;;;;10468603;28;20061;-66
2022/05/23 20:35:28;;;;;;;13.73;7.10;;;;;;;;;;10504448;28;20040;-67
2022/05/23 20:40:32;;;;;;;13.93;8.15;;;;;;;;;;10460194;28;20263;-67
2022/05/23 20:45:36;;;;;;;13.73;8.10;;;;;;;;;;10490524;28;20057;-67
2022/05/23 20:50:46;;;;;;;15.13;8.00;;;;;;;;;;10460467;28;20081;-66
2022/05/23 20:55:50;;;;;;;15.30;8.50;;;;;;;;;;10496294;28;20049;-67
2022/05/23 21:00:55;;;;;;;23.53;8.73;;;;;;;;;;10432318;28;20359;-67
2022/05/23 21:05:57;;;;;;;17.13;8.35;;;;;;;;;;10471394;28;20060;-67
2022/05/23 21:11:03;;;;;;;10.48;6.45;;;;;;;;;;10499695;28;20098;-67
2022/05/23 21:16:06;;;;;;;10.45;7.05;;;;;;;;;;10467501;28;20096;-67
2022/05/23 21:21:08;;;;;;;12.80;6.97;;;;;;;;;;10497891;28;20052;-67
2022/05/23 21:26:16;;;;;;;11.30;7.32;;;;;;;;;;10514679;28;20048;-66
2022/05/23 21:31:19;;;;;;;15.95;7.97;;;;;;;;;;10482391;28;20293;-67
2022/05/23 21:36:21;;;;;;;13.20;7.55;;;;;;;;;;10431478;28;20049;-67
2022/05/23 21:46:47;;;;;;;16.52;9.52;;;;;;;;;;10345203;28;20077;-65
2022/05/23 21:51:51;;;;;;;14.52;8.25;;;;;;;;;;10314068;28;20106;-66
2022/05/23 21:56:55;;;;;;;15.82;8.82;;;;;;;;;;10318067;28;20453;-67
2022/05/23 22:01:58;;;;;;;15.50;8.82;;;;;;;;;;10330861;28;20394;-67
2022/05/23 23:24:40;;;;;;;12.52;7.43;;;;;;;;;;10436743;28;20080;-67
2022/05/23 23:29:42;;;;;;;11.85;7.43;;;;;;;;;;10506206;28;20040;-66
